sensor_id;sensor_type;location;lat;lon;timestamp;pressure;altitude;pressure_sealevel;temperature;humidity
61573;BME280;47465;43.094;12.434;2022-07-29T00:02:13;98559.06;;;21.53;83.67
61573;BME280;47465;43.094;12.434;2022-07-29T00:04:40;98546.56;;;21.39;84.61
61573;BME280;47465;43.094;12.434;2022-07-29T00:07:06;98557.47;;;21.50;84.19
61573;BME280;47465;43.094;12.434;2022-07-29T00:09:32;98558.81;;;21.45;84.79
61573;BME280;47465;43.094;12.434;2022-07-29T00:11:59;98538.00;;;21.21;85.21
61573;BME280;47465;43.094;12.434;2022-07-29T00:14:26;98535.50;;;21.18;85.39
61573;BME280;47465;43.094;12.434;2022-07-29T00:16:51;98544.91;;;21.25;85.16
61573;BME280;47465;43.094;12.434;2022-07-29T00:19:17;98547.81;;;21.22;85.54
61573;BME280;47465;43.094;12.434;2022-07-29T00:21:45;98556.13;;;21.32;85.19
61573;BME280;47465;43.094;12.434;2022-07-29T00:24:10;98539.19;;;21.17;84.68
61573;BME280;47465;43.094;12.434;2022-07-29T00:26:36;98553.13;;;21.24;85.59
61573;BME280;47465;43.094;12.434;2022-07-29T00:29:04;98558.88;;;21.19;85.85
61573;BME280;47465;43.094;12.434;2022-07-29T00:31:30;98551.09;;;21.15;86.65
61573;BME280;47465;43.094;12.434;2022-07-29T00:33:56;98541.94;;;21.04;86.33
61573;BME280;47465;43.094;12.434;2022-07-29T00:36:22;98540.09;;;21.05;86.59
61573;BME280;47465;43.094;12.434;2022-07-29T00:38:50;98546.91;;;21.10;86.53
61573;BME280;47465;43.094;12.434;2022-07-29T00:41:16;98525.41;;;20.96;87.21
61573;BME280;47465;43.094;12.434;2022-07-29T00:43:43;98521.75;;;20.97;87.04
61573;BME280;47465;43.094;12.434;2022-07-29T00:46:09;98525.31;;;20.98;87.85
61573;BME280;47465;43.094;12.434;2022-07-29T00:48:35;98529.97;;;20.96;87.49
61573;BME280;47465;43.094;12.434;2022-07-29T00:51:02;98554.25;;;21.08;88.13
61573;BME280;47465;43.094;12.434;2022-07-29T00:53:29;98536.00;;;20.99;87.34
61573;BME280;47465;43.094;12.434;2022-07-29T00:55:57;98539.16;;;20.93;87.83
61573;BME280;47465;43.094;12.434;2022-07-29T00:58:23;98549.63;;;20.98;87.78
61573;BME280;47465;43.094;12.434;2022-07-29T01:00:49;98529.31;;;20.92;87.80
61573;BME280;47465;43.094;12.434;2022-07-29T01:03:16;98543.56;;;20.94;88.03
61573;BME280;47465;43.094;12.434;2022-07-29T01:05:43;98538.16;;;20.94;88.31
61573;BME280;47465;43.094;12.434;2022-07-29T01:08:11;98523.38;;;20.87;89.28
61573;BME280;47465;43.094;12.434;2022-07-29T01:10:38;98533.00;;;20.91;88.87
61573;BME280;47465;43.094;12.434;2022-07-29T01:13:06;98545.19;;;20.97;88.30
61573;BME280;47465;43.094;12.434;2022-07-29T01:15:34;98552.22;;;20.99;88.48
61573;BME280;47465;43.094;12.434;2022-07-29T01:18:07;98529.53;;;20.89;88.21
61573;BME280;47465;43.094;12.434;2022-07-29T01:20:46;98539.91;;;20.95;88.25
61573;BME280;47465;43.094;12.434;2022-07-29T01:23:42;98553.19;;;20.98;88.43
61573;BME280;47465;43.094;12.434;2022-07-29T01:26:27;98552.03;;;20.89;89.04
61573;BME280;47465;43.094;12.434;2022-07-29T01:29:10;98545.75;;;20.89;89.24
61573;BME280;47465;43.094;12.434;2022-07-29T01:31:45;98545.31;;;20.95;89.22
61573;BME280;47465;43.094;12.434;2022-07-29T01:34:21;98540.22;;;20.90;89.99
61573;BME280;47465;43.094;12.434;2022-07-29T01:36:52;98525.25;;;20.74;90.33
61573;BME280;47465;43.094;12.434;2022-07-29T01:39:26;98528.47;;;20.79;90.35
61573;BME280;47465;43.094;12.434;2022-07-29T01:41:57;98535.41;;;20.83;90.07
61573;BME280;47465;43.094;12.434;2022-07-29T01:44:30;98527.31;;;20.70;90.90
61573;BME280;47465;43.094;12.434;2022-07-29T01:47:00;98527.41;;;20.68;90.62
61573;BME280;47465;43.094;12.434;2022-07-29T01:49:29;98523.09;;;20.66;91.01
61573;BME280;47465;43.094;12.434;2022-07-29T01:51:59;98540.59;;;20.73;90.59
61573;BME280;47465;43.094;12.434;2022-07-29T01:54:32;98515.84;;;20.53;91.19
61573;BME280;47465;43.094;12.434;2022-07-29T01:57:00;98527.84;;;20.62;91.34
61573;BME280;47465;43.094;12.434;2022-07-29T01:59:29;98515.97;;;20.52;91.94
61573;BME280;47465;43.094;12.434;2022-07-29T02:01:58;98545.91;;;20.62;91.85
61573;BME280;47465;43.094;12.434;2022-07-29T02:04:26;98552.81;;;20.66;92.21
61573;BME280;47465;43.094;12.434;2022-07-29T02:06:54;98551.88;;;20.67;92.12
61573;BME280;47465;43.094;12.434;2022-07-29T02:09:21;98545.16;;;20.60;92.07
61573;BME280;47465;43.094;12.434;2022-07-29T02:11:52;98529.69;;;20.49;93.31
61573;BME280;47465;43.094;12.434;2022-07-29T02:14:20;98532.38;;;20.49;93.18
61573;BME280;47465;43.094;12.434;2022-07-29T02:16:50;98535.41;;;20.44;93.54
61573;BME280;47465;43.094;12.434;2022-07-29T02:21:46;98512.63;;;20.36;93.48
61573;BME280;47465;43.094;12.434;2022-07-29T02:24:14;98510.16;;;20.33;93.93
61573;BME280;47465;43.094;12.434;2022-07-29T02:26:43;98537.91;;;20.47;94.51
61573;BME280;47465;43.094;12.434;2022-07-29T02:29:11;98526.78;;;20.39;94.85
61573;BME280;47465;43.094;12.434;2022-07-29T02:31:39;98536.59;;;20.40;96.13
61573;BME280;47465;43.094;12.434;2022-07-29T02:34:11;98530.69;;;20.35;95.49
61573;BME280;47465;43.094;12.434;2022-07-29T02:36:38;98529.16;;;20.31;94.66
61573;BME280;47465;43.094;12.434;2022-07-29T02:39:06;98539.31;;;20.27;94.76
61573;BME280;47465;43.094;12.434;2022-07-29T02:41:37;98513.06;;;20.17;94.96
61573;BME280;47465;43.094;12.434;2022-07-29T02:44:09;98541.16;;;20.27;95.35
61573;BME280;47465;43.094;12.434;2022-07-29T02:46:36;98554.44;;;20.30;95.84
61573;BME280;47465;43.094;12.434;2022-07-29T02:49:15;98551.84;;;20.28;96.79
61573;BME280;47465;43.094;12.434;2022-07-29T02:51:45;98526.78;;;20.14;96.31
61573;BME280;47465;43.094;12.434;2022-07-29T02:54:20;98528.63;;;20.13;96.28
61573;BME280;47465;43.094;12.434;2022-07-29T02:56:48;98537.06;;;20.08;96.78
61573;BME280;47465;43.094;12.434;2022-07-29T02:59:18;98515.44;;;19.96;97.27
61573;BME280;47465;43.094;12.434;2022-07-29T03:01:47;98526.59;;;20.04;96.98
61573;BME280;47465;43.094;12.434;2022-07-29T03:04:15;98511.91;;;19.95;97.08
61573;BME280;47465;43.094;12.434;2022-07-29T03:06:42;98548.38;;;20.14;97.49
61573;BME280;47465;43.094;12.434;2022-07-29T03:09:10;98533.03;;;20.01;97.31
61573;BME280;47465;43.094;12.434;2022-07-29T03:11:36;98500.53;;;19.90;96.41
61573;BME280;47465;43.094;12.434;2022-07-29T03:14:04;98527.75;;;20.00;96.87
61573;BME280;47465;43.094;12.434;2022-07-29T03:16:31;98537.81;;;20.10;98.52
61573;BME280;47465;43.094;12.434;2022-07-29T03:19:01;98515.88;;;20.02;97.68
61573;BME280;47465;43.094;12.434;2022-07-29T03:21:29;98536.63;;;20.15;97.68
61573;BME280;47465;43.094;12.434;2022-07-29T03:23:55;98536.94;;;20.10;96.89
61573;BME280;47465;43.094;12.434;2022-07-29T03:26:21;98529.06;;;20.07;96.94
61573;BME280;47465;43.094;12.434;2022-07-29T03:28:47;98534.78;;;20.02;96.53
61573;BME280;47465;43.094;12.434;2022-07-29T03:31:13;98528.19;;;19.94;95.81
61573;BME280;47465;43.094;12.434;2022-07-29T03:33:39;98538.13;;;19.93;96.77
61573;BME280;47465;43.094;12.434;2022-07-29T03:36:05;98531.72;;;19.81;96.77
61573;BME280;47465;43.094;12.434;2022-07-29T03:38:34;98523.56;;;19.68;97.32
61573;BME280;47465;43.094;12.434;2022-07-29T03:41:04;98512.97;;;19.53;98.45
61573;BME280;47465;43.094;12.434;2022-07-29T03:43:35;98511.97;;;19.54;97.89
61573;BME280;47465;43.094;12.434;2022-07-29T03:46:02;98526.13;;;19.57;98.01
61573;BME280;47465;43.094;12.434;2022-07-29T03:48:31;98535.34;;;19.67;97.91
61573;BME280;47465;43.094;12.434;2022-07-29T03:50:59;98542.66;;;19.65;98.53
61573;BME280;47465;43.094;12.434;2022-07-29T03:53:24;98545.56;;;19.62;98.69
61573;BME280;47465;43.094;12.434;2022-07-29T03:55:54;98511.66;;;19.45;99.02
61573;BME280;47465;43.094;12.434;2022-07-29T03:58:23;98527.97;;;19.57;99.44
61573;BME280;47465;43.094;12.434;2022-07-29T04:00:52;98546.81;;;19.71;98.97
61573;BME280;47465;43.094;12.434;2022-07-29T04:03:19;98550.25;;;19.73;99.18
61573;BME280;47465;43.094;12.434;2022-07-29T04:05:57;98532.19;;;19.61;97.96
61573;BME280;47465;43.094;12.434;2022-07-29T04:08:23;98532.19;;;19.61;97.35
61573;BME280;47465;43.094;12.434;2022-07-29T04:10:49;98551.72;;;19.64;97.77
61573;BME280;47465;43.094;12.434;2022-07-29T04:13:16;98536.84;;;19.59;99.12
61573;BME280;47465;43.094;12.434;2022-07-29T04:15:42;98573.50;;;19.76;98.69
61573;BME280;47465;43.094;12.434;2022-07-29T04:18:09;98540.47;;;19.58;98.36
61573;BME280;47465;43.094;12.434;2022-07-29T04:20:35;98542.41;;;19.56;99.02
61573;BME280;47465;43.094;12.434;2022-07-29T04:23:01;98558.94;;;19.64;98.92
61573;BME280;47465;43.094;12.434;2022-07-29T04:25:26;98555.41;;;19.63;99.20
61573;BME280;47465;43.094;12.434;2022-07-29T04:27:52;98541.06;;;19.63;98.96
61573;BME280;47465;43.094;12.434;2022-07-29T04:30:27;98560.63;;;19.79;98.55
61573;BME280;47465;43.094;12.434;2022-07-29T04:32:52;98559.78;;;19.79;98.26
61573;BME280;47465;43.094;12.434;2022-07-29T04:35:18;98567.56;;;19.83;97.39
61573;BME280;47465;43.094;12.434;2022-07-29T04:37:44;98552.63;;;19.78;98.32
61573;BME280;47465;43.094;12.434;2022-07-29T04:40:11;98569.75;;;19.91;97.84
61573;BME280;47465;43.094;12.434;2022-07-29T04:42:37;98587.91;;;20.02;98.39
61573;BME280;47465;43.094;12.434;2022-07-29T04:45:03;98586.06;;;20.02;98.76
61573;BME280;47465;43.094;12.434;2022-07-29T04:47:31;98584.47;;;20.13;98.07
61573;BME280;47465;43.094;12.434;2022-07-29T04:49:57;98557.22;;;20.03;98.36
61573;BME280;47465;43.094;12.434;2022-07-29T04:52:22;98561.53;;;20.05;98.40
61573;BME280;47465;43.094;12.434;2022-07-29T04:54:48;98560.38;;;20.09;97.16
61573;BME280;47465;43.094;12.434;2022-07-29T04:57:14;98590.94;;;20.23;98.28
61573;BME280;47465;43.094;12.434;2022-07-29T04:59:40;98590.31;;;20.19;98.23
61573;BME280;47465;43.094;12.434;2022-07-29T05:02:06;98597.09;;;20.25;98.77
61573;BME280;47465;43.094;12.434;2022-07-29T05:04:33;98569.44;;;20.08;98.82
61573;BME280;47465;43.094;12.434;2022-07-29T05:06:59;98587.06;;;20.27;98.84
61573;BME280;47465;43.094;12.434;2022-07-29T05:09:25;98593.13;;;20.30;98.35
61573;BME280;47465;43.094;12.434;2022-07-29T05:11:50;98607.59;;;20.55;97.66
61573;BME280;47465;43.094;12.434;2022-07-29T05:14:16;98594.59;;;20.99;95.39
61573;BME280;47465;43.094;12.434;2022-07-29T05:16:42;98584.06;;;21.57;89.27
61573;BME280;47465;43.094;12.434;2022-07-29T05:19:08;98599.78;;;22.11;85.35
61573;BME280;47465;43.094;12.434;2022-07-29T05:21:36;98584.34;;;22.24;84.90
61573;BME280;47465;43.094;12.434;2022-07-29T05:24:02;98583.00;;;22.41;82.88
61573;BME280;47465;43.094;12.434;2022-07-29T05:26:28;98582.06;;;22.65;80.74
61573;BME280;47465;43.094;12.434;2022-07-29T05:28:54;98596.84;;;22.83;79.75
61573;BME280;47465;43.094;12.434;2022-07-29T05:31:20;98601.03;;;22.87;80.29
61573;BME280;47465;43.094;12.434;2022-07-29T05:33:46;98588.09;;;22.91;80.20
61573;BME280;47465;43.094;12.434;2022-07-29T05:36:11;98607.97;;;23.03;78.98
61573;BME280;47465;43.094;12.434;2022-07-29T05:38:39;98604.75;;;22.75;80.45
61573;BME280;47465;43.094;12.434;2022-07-29T05:41:05;98608.69;;;23.05;79.01
61573;BME280;47465;43.094;12.434;2022-07-29T05:43:31;98620.13;;;23.42;77.44
61573;BME280;47465;43.094;12.434;2022-07-29T05:45:57;98625.63;;;23.63;76.69
61573;BME280;47465;43.094;12.434;2022-07-29T05:48:23;98626.72;;;23.72;76.11
61573;BME280;47465;43.094;12.434;2022-07-29T05:50:49;98608.59;;;23.61;76.89
61573;BME280;47465;43.094;12.434;2022-07-29T05:53:15;98626.47;;;23.75;75.14
61573;BME280;47465;43.094;12.434;2022-07-29T05:55:43;98639.28;;;23.84;76.57
61573;BME280;47465;43.094;12.434;2022-07-29T05:58:08;98638.28;;;23.85;75.34
61573;BME280;47465;43.094;12.434;2022-07-29T06:00:34;98606.00;;;23.71;75.67
61573;BME280;47465;43.094;12.434;2022-07-29T06:03:00;98626.41;;;23.97;74.56
61573;BME280;47465;43.094;12.434;2022-07-29T06:05:26;98613.09;;;24.15;73.54
61573;BME280;47465;43.094;12.434;2022-07-29T06:07:52;98615.97;;;24.14;73.17
61573;BME280;47465;43.094;12.434;2022-07-29T06:10:18;98627.00;;;24.33;72.64
61573;BME280;47465;43.094;12.434;2022-07-29T06:12:46;98605.81;;;23.95;74.15
61573;BME280;47465;43.094;12.434;2022-07-29T06:15:11;98625.63;;;24.07;74.21
61573;BME280;47465;43.094;12.434;2022-07-29T06:17:37;98624.69;;;23.96;74.71
61573;BME280;47465;43.094;12.434;2022-07-29T06:20:04;98631.06;;;24.07;74.94
61573;BME280;47465;43.094;12.434;2022-07-29T06:22:30;98634.09;;;23.92;75.20
61573;BME280;47465;43.094;12.434;2022-07-29T06:24:56;98637.16;;;24.20;73.07
61573;BME280;47465;43.094;12.434;2022-07-29T06:27:21;98640.59;;;24.22;74.52
61573;BME280;47465;43.094;12.434;2022-07-29T06:29:49;98625.84;;;24.36;73.27
61573;BME280;47465;43.094;12.434;2022-07-29T06:32:14;98624.56;;;24.51;72.36
61573;BME280;47465;43.094;12.434;2022-07-29T06:34:40;98612.47;;;24.44;71.96
61573;BME280;47465;43.094;12.434;2022-07-29T14:19:34;98324.00;;;35.13;29.02
61573;BME280;47465;43.094;12.434;2022-07-29T14:22:01;98336.66;;;34.87;28.91
61573;BME280;47465;43.094;12.434;2022-07-29T14:24:27;98333.50;;;35.04;29.04
61573;BME280;47465;43.094;12.434;2022-07-29T14:26:53;98317.63;;;35.32;28.83
61573;BME280;47465;43.094;12.434;2022-07-29T14:29:18;98324.56;;;35.02;29.52
61573;BME280;47465;43.094;12.434;2022-07-29T14:31:44;98311.31;;;34.64;29.09
61573;BME280;47465;43.094;12.434;2022-07-29T14:34:10;98319.00;;;34.75;29.14
61573;BME280;47465;43.094;12.434;2022-07-29T14:36:37;98304.19;;;35.09;28.66
61573;BME280;47465;43.094;12.434;2022-07-29T14:39:03;98299.25;;;34.91;29.11
61573;BME280;47465;43.094;12.434;2022-07-29T14:41:29;98299.31;;;35.05;28.55
61573;BME280;47465;43.094;12.434;2022-07-29T14:43:56;98293.19;;;35.23;28.61
61573;BME280;47465;43.094;12.434;2022-07-29T14:46:22;98301.63;;;35.01;28.83
61573;BME280;47465;43.094;12.434;2022-07-29T14:48:48;98292.44;;;34.87;29.36
61573;BME280;47465;43.094;12.434;2022-07-29T14:51:14;98304.66;;;34.58;30.55
61573;BME280;47465;43.094;12.434;2022-07-29T14:53:41;98305.59;;;34.24;30.58
61573;BME280;47465;43.094;12.434;2022-07-29T14:56:07;98327.84;;;34.22;30.73
61573;BME280;47465;43.094;12.434;2022-07-29T14:58:33;98315.41;;;34.05;30.88
61573;BME280;47465;43.094;12.434;2022-07-29T15:00:58;98300.94;;;33.96;31.16
61573;BME280;47465;43.094;12.434;2022-07-29T15:03:24;98307.09;;;33.98;31.31
61573;BME280;47465;43.094;12.434;2022-07-29T15:05:50;98313.88;;;33.95;30.51
61573;BME280;47465;43.094;12.434;2022-07-29T15:08:16;98303.16;;;33.72;31.15
61573;BME280;47465;43.094;12.434;2022-07-29T15:10:44;98297.38;;;33.67;30.63
61573;BME280;47465;43.094;12.434;2022-07-29T15:13:09;98308.16;;;33.62;30.45
61573;BME280;47465;43.094;12.434;2022-07-29T15:15:35;98295.22;;;33.41;30.57
61573;BME280;47465;43.094;12.434;2022-07-29T15:18:05;98290.84;;;33.25;30.02
61573;BME280;47465;43.094;12.434;2022-07-29T15:20:31;98279.44;;;33.07;29.87
61573;BME280;47465;43.094;12.434;2022-07-29T15:22:57;98273.66;;;33.02;29.96
61573;BME280;47465;43.094;12.434;2022-07-29T15:25:24;98259.28;;;32.63;33.11
61573;BME280;47465;43.094;12.434;2022-07-29T15:27:52;98272.31;;;32.54;36.16
61573;BME280;47465;43.094;12.434;2022-07-29T15:30:18;98279.81;;;32.31;35.78
61573;BME280;47465;43.094;12.434;2022-07-29T15:32:44;98283.84;;;32.13;33.86
61573;BME280;47465;43.094;12.434;2022-07-29T15:35:10;98282.88;;;31.77;33.77
61573;BME280;47465;43.094;12.434;2022-07-29T15:37:36;98263.97;;;31.44;34.70
61573;BME280;47465;43.094;12.434;2022-07-29T15:40:02;98281.00;;;31.39;34.64
61573;BME280;47465;43.094;12.434;2022-07-29T15:42:28;98284.66;;;31.31;35.37
61573;BME280;47465;43.094;12.434;2022-07-29T15:44:55;98280.78;;;31.26;35.34
61573;BME280;47465;43.094;12.434;2022-07-29T15:47:22;98320.38;;;31.31;35.24
61573;BME280;47465;43.094;12.434;2022-07-29T15:49:48;98325.53;;;30.57;40.79
61573;BME280;47465;43.094;12.434;2022-07-29T15:52:15;98343.72;;;30.10;42.45
61573;BME280;47465;43.094;12.434;2022-07-29T15:54:41;98329.41;;;29.76;44.07
61573;BME280;47465;43.094;12.434;2022-07-29T15:57:07;98348.94;;;29.48;45.72
61573;BME280;47465;43.094;12.434;2022-07-29T15:59:34;98353.50;;;28.98;45.56
61573;BME280;47465;43.094;12.434;2022-07-29T16:02:01;98367.09;;;28.57;47.62
61573;BME280;47465;43.094;12.434;2022-07-29T16:04:27;98370.91;;;28.38;47.01
61573;BME280;47465;43.094;12.434;2022-07-29T16:06:53;98384.16;;;28.17;47.48
61573;BME280;47465;43.094;12.434;2022-07-29T16:09:19;98385.59;;;27.77;52.05
61573;BME280;47465;43.094;12.434;2022-07-29T16:11:45;98379.63;;;27.55;53.60
61573;BME280;47465;43.094;12.434;2022-07-29T16:14:13;98357.91;;;27.72;54.12
61573;BME280;47465;43.094;12.434;2022-07-29T16:16:39;98392.69;;;27.88;53.98
61573;BME280;47465;43.094;12.434;2022-07-29T16:19:07;98389.41;;;27.40;53.95
61573;BME280;47465;43.094;12.434;2022-07-29T16:21:34;98371.06;;;27.50;53.84
61573;BME280;47465;43.094;12.434;2022-07-29T16:24:01;98352.91;;;27.67;51.75
61573;BME280;47465;43.094;12.434;2022-07-29T16:26:27;98356.44;;;28.12;49.10
61573;BME280;47465;43.094;12.434;2022-07-29T16:28:53;98358.22;;;28.63;48.33
61573;BME280;47465;43.094;12.434;2022-07-29T16:31:19;98342.75;;;29.05;46.67
61573;BME280;47465;43.094;12.434;2022-07-29T16:33:47;98336.78;;;29.42;43.45
61573;BME280;47465;43.094;12.434;2022-07-29T16:36:14;98334.03;;;29.75;42.01
61573;BME280;47465;43.094;12.434;2022-07-29T16:38:40;98357.59;;;30.09;41.47
61573;BME280;47465;43.094;12.434;2022-07-29T16:41:06;98353.63;;;30.20;41.51
61573;BME280;47465;43.094;12.434;2022-07-29T16:43:32;98343.34;;;30.14;40.93
61573;BME280;47465;43.094;12.434;2022-07-29T16:45:58;98353.25;;;30.23;40.23
61573;BME280;47465;43.094;12.434;2022-07-29T16:48:24;98364.41;;;30.21;38.70
61573;BME280;47465;43.094;12.434;2022-07-29T16:50:50;98355.38;;;30.04;39.19
61573;BME280;47465;43.094;12.434;2022-07-29T16:53:17;98376.97;;;29.99;40.29
61573;BME280;47465;43.094;12.434;2022-07-29T16:55:43;98389.19;;;29.88;39.57
61573;BME280;47465;43.094;12.434;2022-07-29T16:58:10;98394.66;;;29.88;39.38
61573;BME280;47465;43.094;12.434;2022-07-29T17:00:37;98384.56;;;29.81;38.65
61573;BME280;47465;43.094;12.434;2022-07-29T17:03:03;98398.25;;;29.89;37.56
61573;BME280;47465;43.094;12.434;2022-07-29T17:05:30;98386.59;;;29.87;36.65
61573;BME280;47465;43.094;12.434;2022-07-29T17:07:55;98381.44;;;29.84;37.07
61573;BME280;47465;43.094;12.434;2022-07-29T17:10:25;98388.16;;;29.81;37.67
61573;BME280;47465;43.094;12.434;2022-07-29T17:12:50;98398.06;;;29.90;38.16
61573;BME280;47465;43.094;12.434;2022-07-29T17:15:17;98384.88;;;29.86;38.69
61573;BME280;47465;43.094;12.434;2022-07-29T17:17:44;98366.75;;;29.77;38.66
61573;BME280;47465;43.094;12.434;2022-07-29T17:20:12;98363.69;;;29.72;39.82
61573;BME280;47465;43.094;12.434;2022-07-29T17:22:38;98377.19;;;29.73;39.60
61573;BME280;47465;43.094;12.434;2022-07-29T17:25:05;98380.13;;;29.72;40.09
61573;BME280;47465;43.094;12.434;2022-07-29T17:27:33;98401.00;;;29.73;40.33
61573;BME280;47465;43.094;12.434;2022-07-29T17:30:00;98404.78;;;29.80;40.52
61573;BME280;47465;43.094;12.434;2022-07-29T17:32:25;98401.38;;;29.69;40.79
61573;BME280;47465;43.094;12.434;2022-07-29T17:34:51;98399.13;;;29.65;40.79
61573;BME280;47465;43.094;12.434;2022-07-29T17:37:18;98396.38;;;29.48;41.41
61573;BME280;47465;43.094;12.434;2022-07-29T17:39:44;98415.53;;;29.48;41.36
61573;BME280;47465;43.094;12.434;2022-07-29T17:42:12;98415.56;;;29.32;42.55
61573;BME280;47465;43.094;12.434;2022-07-29T17:44:40;98428.19;;;29.33;42.04
61573;BME280;47465;43.094;12.434;2022-07-29T17:47:06;98424.25;;;29.27;42.11
61573;BME280;47465;43.094;12.434;2022-07-29T17:49:32;98425.63;;;29.15;43.48
61573;BME280;47465;43.094;12.434;2022-07-29T17:51:58;98408.41;;;28.97;43.58
61573;BME280;47465;43.094;12.434;2022-07-29T17:54:24;98429.78;;;28.85;44.49
61573;BME280;47465;43.094;12.434;2022-07-29T17:56:50;98420.16;;;28.73;45.10
61573;BME280;47465;43.094;12.434;2022-07-29T17:59:16;98435.06;;;28.78;44.91
61573;BME280;47465;43.094;12.434;2022-07-29T18:01:43;98427.31;;;28.65;45.72
61573;BME280;47465;43.094;12.434;2022-07-29T18:04:09;98420.56;;;28.52;46.57
61573;BME280;47465;43.094;12.434;2022-07-29T18:06:35;98433.41;;;28.51;46.66
61573;BME280;47465;43.094;12.434;2022-07-29T18:09:02;98434.03;;;28.45;46.89
61573;BME280;47465;43.094;12.434;2022-07-29T18:11:28;98448.03;;;28.42;46.49
61573;BME280;47465;43.094;12.434;2022-07-29T18:13:56;98438.38;;;28.30;46.96
61573;BME280;47465;43.094;12.434;2022-07-29T18:16:22;98440.97;;;28.31;47.29
61573;BME280;47465;43.094;12.434;2022-07-29T18:18:49;98440.06;;;28.22;47.51
61573;BME280;47465;43.094;12.434;2022-07-29T18:21:15;98460.59;;;28.26;48.08
61573;BME280;47465;43.094;12.434;2022-07-29T18:23:41;98449.88;;;28.07;48.24
61573;BME280;47465;43.094;12.434;2022-07-29T18:26:08;98459.28;;;28.04;48.50
61573;BME280;47465;43.094;12.434;2022-07-29T18:28:34;98452.97;;;27.86;49.45
61573;BME280;47465;43.094;12.434;2022-07-29T18:31:00;98446.66;;;27.68;49.64
61573;BME280;47465;43.094;12.434;2022-07-29T18:33:27;98436.50;;;27.60;49.79
61573;BME280;47465;43.094;12.434;2022-07-29T18:35:54;98447.75;;;27.39;50.87
61573;BME280;47465;43.094;12.434;2022-07-29T18:38:20;98451.63;;;27.18;51.18
61573;BME280;47465;43.094;12.434;2022-07-29T18:40:47;98436.59;;;26.87;52.04
61573;BME280;47465;43.094;12.434;2022-07-29T18:43:13;98455.66;;;26.69;53.18
61573;BME280;47465;43.094;12.434;2022-07-29T18:45:40;98452.13;;;26.58;53.22
61573;BME280;47465;43.094;12.434;2022-07-29T18:48:06;98485.28;;;26.63;53.97
61573;BME280;47465;43.094;12.434;2022-07-29T18:50:33;98479.88;;;26.44;54.15
61573;BME280;47465;43.094;12.434;2022-07-29T18:53:00;98477.03;;;26.36;54.46
61573;BME280;47465;43.094;12.434;2022-07-29T18:55:28;98467.72;;;26.29;54.43
61573;BME280;47465;43.094;12.434;2022-07-29T18:57:54;98481.91;;;26.32;55.14
61573;BME280;47465;43.094;12.434;2022-07-29T19:00:20;98480.78;;;26.25;55.09
61573;BME280;47465;43.094;12.434;2022-07-29T19:02:46;98478.66;;;26.19;54.94
61573;BME280;47465;43.094;12.434;2022-07-29T19:05:11;98493.03;;;26.11;55.76
61573;BME280;47465;43.094;12.434;2022-07-29T19:07:37;98487.31;;;26.05;56.04
61573;BME280;47465;43.094;12.434;2022-07-29T19:10:05;98493.75;;;26.03;55.96
61573;BME280;47465;43.094;12.434;2022-07-29T19:12:31;98503.06;;;26.01;56.63
61573;BME280;47465;43.094;12.434;2022-07-29T19:14:57;98526.56;;;26.12;56.47
61573;BME280;47465;43.094;12.434;2022-07-29T19:17:23;98522.13;;;26.11;56.31
61573;BME280;47465;43.094;12.434;2022-07-29T19:19:49;98515.25;;;26.07;56.73
61573;BME280;47465;43.094;12.434;2022-07-29T19:22:18;98518.53;;;26.10;57.07
61573;BME280;47465;43.094;12.434;2022-07-29T19:24:44;98509.25;;;26.03;56.36
61573;BME280;47465;43.094;12.434;2022-07-29T19:27:11;98511.38;;;25.99;56.71
61573;BME280;47465;43.094;12.434;2022-07-29T19:29:38;98519.84;;;26.06;56.56
61573;BME280;47465;43.094;12.434;2022-07-29T19:32:04;98523.13;;;26.10;56.64
61573;BME280;47465;43.094;12.434;2022-07-29T19:34:30;98499.50;;;26.00;56.75
61573;BME280;47465;43.094;12.434;2022-07-29T19:36:57;98502.06;;;26.02;57.02
61573;BME280;47465;43.094;12.434;2022-07-29T19:39:23;98518.41;;;26.02;57.42
61573;BME280;47465;43.094;12.434;2022-07-29T19:41:49;98509.81;;;25.97;57.94
61573;BME280;47465;43.094;12.434;2022-07-29T19:44:17;98511.09;;;25.93;57.90
61573;BME280;47465;43.094;12.434;2022-07-29T19:46:43;98533.75;;;25.93;58.66
61573;BME280;47465;43.094;12.434;2022-07-29T19:49:10;98524.47;;;25.96;58.96
61573;BME280;47465;43.094;12.434;2022-07-29T19:51:38;98540.66;;;26.07;59.36
61573;BME280;47465;43.094;12.434;2022-07-29T19:54:04;98540.22;;;26.12;59.11
61573;BME280;47465;43.094;12.434;2022-07-29T19:56:30;98536.75;;;26.10;59.15
61573;BME280;47465;43.094;12.434;2022-07-29T19:58:56;98552.22;;;26.19;59.44
61573;BME280;47465;43.094;12.434;2022-07-29T20:01:24;98527.28;;;26.14;59.16
61573;BME280;47465;43.094;12.434;2022-07-29T20:03:50;98539.63;;;26.18;58.72
61573;BME280;47465;43.094;12.434;2022-07-29T20:06:16;98513.22;;;26.09;58.45
61573;BME280;47465;43.094;12.434;2022-07-29T20:08:42;98534.63;;;26.13;58.23
61573;BME280;47465;43.094;12.434;2022-07-29T20:11:09;98521.72;;;26.06;58.24
61573;BME280;47465;43.094;12.434;2022-07-29T20:13:35;98514.09;;;25.99;57.07
61573;BME280;47465;43.094;12.434;2022-07-29T20:16:02;98535.47;;;26.14;56.05
61573;BME280;47465;43.094;12.434;2022-07-29T20:18:31;98540.75;;;26.15;56.18
61573;BME280;47465;43.094;12.434;2022-07-29T20:20:57;98515.41;;;26.05;56.15
61573;BME280;47465;43.094;12.434;2022-07-29T20:23:24;98526.13;;;26.07;55.64
61573;BME280;47465;43.094;12.434;2022-07-29T20:25:50;98532.19;;;26.00;56.11
61573;BME280;47465;43.094;12.434;2022-07-29T20:28:16;98511.09;;;25.83;56.10
61573;BME280;47465;43.094;12.434;2022-07-29T20:30:42;98508.50;;;25.81;56.44
61573;BME280;47465;43.094;12.434;2022-07-29T20:33:08;98507.78;;;25.70;56.90
61573;BME280;47465;43.094;12.434;2022-07-29T20:35:35;98517.81;;;25.69;56.65